Palpala, Argentina
Current Conditions -  °F | °C
As of 9:00 PM on Thursday 18 Dec 2014 (Local Time) from SASJ Reporting Station
Overcast Overcast  
Wind Chill: 22°   Ceiling: 6000
Heat Index: 22°   Visibility: 6mi
Dew Point: 18°   Wind: 7mph
Humidity: 78%   Direction: 320°NW
Pressure: 29.94"   Gusts: NA
Location:  24.25°S, 65.2°W
Report Text: SASJ 190000Z 32006KT 9999 FEW010 SCT020OVC060 22/18 Q1014
Loading
Personal Weather Stations






























Interactive Weather Map New forecast layout! Learn more

10-Day Weather Forecast

Advertisements
Track Severe Weather on mobile